Time;durP1;ratioP1;P1;durP2;ratioP2;P2;SDS_P1;SDS_P2;PMS_P1;PMS_P2;Temp;Humidity;BMP_temperature;BMP_pressure;BME280_temperature;BME280_humidity;BME280_pressure;Samples;Min_cycle;Max_cycle;Signal;HPM_P1;HPM_P2
2023/08/18 00:00:58;;;;;;;1.30;1.30;;;26.60;52.50;;;;;;4994409;28;20469;-79
2023/08/18 00:03:26;;;;;;;1.50;1.40;;;26.60;52.30;;;;;;4994488;28;20447;-77
2023/08/18 00:05:55;;;;;;;1.90;1.70;;;26.60;52.50;;;;;;4993566;28;20460;-78
2023/08/18 00:08:22;;;;;;;1.97;1.30;;;26.50;52.50;;;;;;4994257;28;20544;-78
2023/08/18 00:10:51;;;;;;;3.20;1.63;;;26.40;52.70;;;;;;4993821;28;20586;-78
2023/08/18 00:13:19;;;;;;;2.70;1.70;;;26.40;52.70;;;;;;4993853;28;20995;-78
2023/08/18 00:15:47;;;;;;;1.43;1.37;;;26.50;52.80;;;;;;4994343;28;20469;-78
2023/08/18 00:18:16;;;;;;;1.73;1.60;;;26.50;53.30;;;;;;4994417;28;20515;-79
2023/08/18 00:20:44;;;;;;;2.17;1.67;;;26.50;52.30;;;;;;4977567;28;20506;-77
2023/08/18 00:23:12;;;;;;;1.60;1.50;;;26.40;53.30;;;;;;4993973;28;20462;-78
2023/08/18 00:25:40;;;;;;;1.90;1.80;;;26.50;52.80;;;;;;4994263;28;20528;-78
2023/08/18 00:28:08;;;;;;;3.07;1.60;;;26.50;53.10;;;;;;4994002;28;20629;-78
2023/08/18 00:30:36;;;;;;;1.43;1.23;;;26.50;52.80;;;;;;4994046;28;20564;-78
2023/08/18 00:33:04;;;;;;;3.77;1.60;;;26.50;53.10;;;;;;5002120;28;20496;-78
2023/08/18 00:35:34;;;;;;;2.80;1.40;;;26.40;52.90;;;;;;4994039;28;20504;-78
2023/08/18 00:38:02;;;;;;;2.30;1.40;;;26.40;53.40;;;;;;4993462;28;20416;-78
2023/08/18 00:40:30;;;;;;;1.70;1.60;;;26.40;53.20;;;;;;4983662;28;20511;-78
2023/08/18 00:42:58;;;;;;;2.00;1.67;;;26.40;53.50;;;;;;4993727;28;20518;-78
2023/08/18 00:45:26;;;;;;;3.17;1.50;;;26.40;53.50;;;;;;4994006;28;20416;-78
2023/08/18 00:47:53;;;;;;;3.30;1.40;;;26.40;53.40;;;;;;4994099;28;20445;-78
2023/08/18 00:50:22;;;;;;;4.13;1.70;;;26.40;53.40;;;;;;4994226;28;20505;-78
2023/08/18 00:52:56;;;;;;;3.57;1.40;;;26.40;53.20;;;;;;5010494;28;20530;-78
2023/08/18 00:55:24;;;;;;;2.50;1.60;;;26.40;53.80;;;;;;5009371;28;20460;-78
2023/08/18 00:57:51;;;;;;;2.33;1.47;;;26.40;53.00;;;;;;4994110;28;20535;-78
2023/08/18 01:00:23;;;;;;;1.90;1.80;;;26.40;53.40;;;;;;4993776;28;20496;-78
2023/08/18 01:02:51;;;;;;;3.53;1.60;;;26.40;53.80;;;;;;4994182;28;20532;-78
2023/08/18 01:05:20;;;;;;;2.57;1.53;;;26.40;54.00;;;;;;4993736;28;20426;-78
2023/08/18 01:07:49;;;;;;;2.07;1.50;;;26.30;53.60;;;;;;4993633;28;20428;-78
2023/08/18 01:10:20;;;;;;;2.83;1.50;;;26.30;54.30;;;;;;4993556;28;20473;-78
2023/08/18 01:12:52;;;;;;;2.60;1.60;;;26.40;54.40;;;;;;4993455;28;20460;-77
2023/08/18 01:15:23;;;;;;;1.93;1.83;;;26.40;53.50;;;;;;4993491;28;20445;-78
2023/08/18 01:17:52;;;;;;;4.60;1.60;;;26.30;54.40;;;;;;4993630;28;20416;-77
2023/08/18 01:20:21;;;;;;;1.57;1.20;;;26.40;54.20;;;;;;4993328;28;20440;-77
2023/08/18 01:22:54;;;;;;;2.30;2.10;;;26.50;53.90;;;;;;4985730;28;20472;-77
2023/08/18 01:25:22;;;;;;;3.70;1.77;;;26.50;53.40;;;;;;5009538;28;20531;-78
2023/08/18 01:27:50;;;;;;;1.83;1.73;;;26.40;54.00;;;;;;5011988;28;20494;-78
2023/08/18 01:30:18;;;;;;;2.00;1.90;;;26.30;54.50;;;;;;4993352;28;20598;-77
2023/08/18 01:32:49;;;;;;;1.90;1.73;;;26.20;53.70;;;;;;4992884;28;20448;-76
2023/08/18 01:35:17;;;;;;;5.00;1.73;;;26.20;54.90;;;;;;4993354;28;20400;-76
2023/08/18 01:37:45;;;;;;;1.90;1.30;;;26.20;54.50;;;;;;4993350;28;20437;-76
2023/08/18 01:40:16;;;;;;;3.67;1.57;;;26.20;54.80;;;;;;4993010;28;20580;-77
2023/08/18 01:42:44;;;;;;;2.40;1.70;;;26.20;54.70;;;;;;4993021;28;20926;-77
2023/08/18 01:45:12;;;;;;;15.20;12.40;;;26.20;54.10;;;;;;4992612;28;20495;-75
2023/08/18 01:47:40;;;;;;;20.70;15.40;;;26.20;54.40;;;;;;4992938;28;20447;-76
2023/08/18 01:50:08;;;;;;;18.33;14.17;;;26.30;55.00;;;;;;4995030;28;20970;-77
2023/08/18 01:52:37;;;;;;;23.07;18.03;;;26.30;54.60;;;;;;4992100;28;20510;-76
2023/08/18 01:55:05;;;;;;;28.93;20.53;;;26.30;53.90;;;;;;4996718;28;20450;-77
2023/08/18 01:57:35;;;;;;;52.50;38.77;;;26.30;54.40;;;;;;4997003;28;20456;-77
2023/08/18 02:00:03;;;;;;;46.83;33.30;;;26.30;54.40;;;;;;4996777;28;20507;-79
2023/08/18 02:02:31;;;;;;;27.40;20.07;;;26.30;54.60;;;;;;5001015;28;20411;-78
2023/08/18 02:04:59;;;;;;;25.67;19.40;;;26.20;54.80;;;;;;4998129;28;20426;-76
2023/08/18 02:07:27;;;;;;;31.73;22.77;;;26.20;54.80;;;;;;4996858;28;20476;-77
2023/08/18 02:09:55;;;;;;;41.17;30.30;;;26.30;55.30;;;;;;4996645;28;20874;-77
2023/08/18 02:12:23;;;;;;;33.73;23.87;;;26.30;54.60;;;;;;4996740;28;20900;-76
2023/08/18 02:14:52;;;;;;;33.30;23.07;;;26.20;54.80;;;;;;4996707;28;20469;-76
2023/08/18 02:17:20;;;;;;;30.80;22.37;;;26.20;55.00;;;;;;4997213;28;20511;-77
2023/08/18 02:19:48;;;;;;;31.37;24.10;;;26.10;55.90;;;;;;4996465;28;20447;-77
2023/08/18 02:22:16;;;;;;;37.30;26.87;;;26.10;55.50;;;;;;4996564;28;20448;-77
2023/08/18 02:24:44;;;;;;;44.93;32.60;;;26.10;55.70;;;;;;4996325;28;20948;-77
2023/08/18 02:27:13;;;;;;;34.53;26.87;;;26.20;55.70;;;;;;4996649;28;20450;-76
2023/08/18 02:29:41;;;;;;;30.67;23.37;;;26.20;55.60;;;;;;4996190;28;20493;-76
2023/08/18 02:32:10;;;;;;;38.43;28.47;;;26.20;55.60;;;;;;4996184;28;20482;-77
2023/08/18 02:34:38;;;;;;;31.10;21.73;;;26.20;55.50;;;;;;4987660;28;20428;-77
2023/08/18 02:37:06;;;;;;;28.87;20.97;;;26.10;55.70;;;;;;4996341;28;20420;-76
2023/08/18 02:39:34;;;;;;;25.77;19.37;;;26.10;55.60;;;;;;5005517;28;20514;-77
2023/08/18 02:42:03;;;;;;;28.83;21.30;;;26.10;55.30;;;;;;4996244;28;20465;-77
2023/08/18 02:44:31;;;;;;;24.60;18.47;;;26.00;56.40;;;;;;4995979;28;20488;-77
2023/08/18 02:46:59;;;;;;;23.97;16.43;;;26.10;55.60;;;;;;4996363;28;20445;-76
2023/08/18 02:49:29;;;;;;;29.47;22.23;;;26.10;56.00;;;;;;4995559;28;20432;-77
2023/08/18 02:51:57;;;;;;;20.27;15.80;;;26.20;55.70;;;;;;4995823;28;20477;-77
2023/08/18 02:54:25;;;;;;;22.73;17.80;;;26.30;55.60;;;;;;5012208;28;20450;-77
2023/08/18 02:56:53;;;;;;;19.83;15.60;;;26.30;55.50;;;;;;5015514;28;20442;-77
2023/08/18 02:59:21;;;;;;;19.33;15.27;;;26.30;55.30;;;;;;5014852;28;20612;-78
2023/08/18 03:01:49;;;;;;;21.97;14.63;;;26.30;55.60;;;;;;5011643;28;20480;-78
2023/08/18 03:04:18;;;;;;;18.43;14.43;;;26.30;55.70;;;;;;4995007;28;20424;-78
2023/08/18 03:06:47;;;;;;;13.90;11.57;;;26.30;55.20;;;;;;5007111;28;20436;-78
2023/08/18 03:09:16;;;;;;;17.53;12.67;;;26.30;55.50;;;;;;4995588;28;20484;-77
2023/08/18 03:11:44;;;;;;;15.63;12.27;;;26.40;55.50;;;;;;4995491;28;20448;-78
2023/08/18 03:14:13;;;;;;;13.80;11.03;;;26.30;55.50;;;;;;4995351;28;20449;-77
2023/08/18 03:16:41;;;;;;;13.60;11.40;;;26.30;56.00;;;;;;4995324;28;20441;-77
2023/08/18 03:19:09;;;;;;;12.40;10.03;;;26.30;55.80;;;;;;4995570;28;20529;-78
2023/08/18 03:21:37;;;;;;;9.30;7.90;;;26.40;55.60;;;;;;4995471;28;20414;-77
2023/08/18 03:24:07;;;;;;;10.17;8.60;;;26.40;54.90;;;;;;4986717;28;20535;-77
2023/08/18 03:26:35;;;;;;;10.07;9.07;;;26.30;55.80;;;;;;4996970;28;20460;-77
2023/08/18 03:29:03;;;;;;;9.60;7.90;;;26.40;55.60;;;;;;4999872;28;20849;-78
2023/08/18 03:31:31;;;;;;;10.80;7.13;;;26.30;55.60;;;;;;5013804;28;20554;-78
2023/08/18 03:34:00;;;;;;;8.63;7.73;;;26.20;55.50;;;;;;5000134;28;20407;-78
2023/08/18 03:36:28;;;;;;;10.57;7.53;;;26.30;56.00;;;;;;5015158;28;20480;-77
2023/08/18 03:38:56;;;;;;;13.20;6.97;;;26.30;55.50;;;;;;5002384;28;20974;-77
2023/08/18 03:41:26;;;;;;;6.73;6.03;;;26.30;55.30;;;;;;4995397;28;20516;-79
2023/08/18 03:43:54;;;;;;;6.33;5.70;;;26.30;55.60;;;;;;4995083;28;20596;-77
2023/08/18 03:46:23;;;;;;;11.47;6.20;;;26.30;55.90;;;;;;4995983;28;20453;-77
2023/08/18 03:48:50;;;;;;;6.50;5.27;;;26.30;55.60;;;;;;5004202;28;20467;-78
2023/08/18 03:51:18;;;;;;;10.53;8.47;;;26.30;56.10;;;;;;4995503;28;20475;-77
2023/08/18 03:53:46;;;;;;;6.07;5.47;;;26.20;55.40;;;;;;4996144;28;20428;-77
2023/08/18 03:56:14;;;;;;;4.90;4.20;;;26.10;55.90;;;;;;4990631;28;20436;-78
2023/08/18 03:58:44;;;;;;;6.10;4.77;;;26.20;56.20;;;;;;4988072;28;20450;-78
2023/08/18 04:01:14;;;;;;;4.77;4.37;;;26.30;56.10;;;;;;4995572;28;20496;-78
2023/08/18 04:03:43;;;;;;;4.03;3.63;;;26.30;55.80;;;;;;4994660;28;20545;-78
2023/08/18 04:06:12;;;;;;;4.93;3.57;;;26.30;55.60;;;;;;5000139;28;20960;-79
2023/08/18 04:08:42;;;;;;;6.57;3.70;;;26.30;55.90;;;;;;5004363;28;20448;-78
2023/08/18 04:11:11;;;;;;;3.90;3.60;;;26.20;55.70;;;;;;5002166;28;20559;-78
2023/08/18 04:13:39;;;;;;;6.40;5.00;;;26.20;56.70;;;;;;4988450;28;20472;-79
2023/08/18 04:16:10;;;;;;;3.63;3.23;;;26.20;56.10;;;;;;4995009;28;20428;-78
2023/08/18 04:18:38;;;;;;;4.73;3.10;;;26.20;55.60;;;;;;4995018;28;20506;-78
2023/08/18 04:21:06;;;;;;;5.03;3.07;;;26.20;56.00;;;;;;4994414;28;20444;-78
2023/08/18 04:23:34;;;;;;;3.57;3.23;;;26.20;55.90;;;;;;4994419;28;20444;-79
2023/08/18 04:26:02;;;;;;;4.30;2.80;;;26.30;56.30;;;;;;4994655;28;20451;-78
2023/08/18 04:28:30;;;;;;;3.53;3.23;;;26.30;55.80;;;;;;4994426;28;20515;-78
2023/08/18 04:30:59;;;;;;;2.87;2.57;;;26.20;56.50;;;;;;5006018;28;20427;-78
2023/08/18 04:33:28;;;;;;;3.37;3.10;;;26.20;55.70;;;;;;4998351;28;20459;-78
2023/08/18 04:35:57;;;;;;;10.70;2.73;;;26.20;56.20;;;;;;4979936;28;20422;-78
2023/08/18 04:38:28;;;;;;;4.63;3.43;;;26.20;56.80;;;;;;4980394;28;20860;-77
2023/08/18 04:40:59;;;;;;;3.03;2.73;;;26.20;56.20;;;;;;4986806;28;20552;-78
2023/08/18 04:43:27;;;;;;;2.80;2.57;;;26.30;57.00;;;;;;4991183;28;20470;-78
2023/08/18 04:45:55;;;;;;;2.80;2.60;;;26.30;56.20;;;;;;4991957;28;20460;-78
2023/08/18 04:48:23;;;;;;;2.77;2.57;;;26.30;56.10;;;;;;4993462;28;20433;-79
2023/08/18 04:50:52;;;;;;;2.37;2.27;;;26.30;56.30;;;;;;4993175;28;20464;-80
2023/08/18 04:53:20;;;;;;;3.37;2.77;;;26.30;56.40;;;;;;4986471;28;20501;-78
2023/08/18 04:55:48;;;;;;;4.40;2.73;;;26.20;56.70;;;;;;4993550;28;20420;-79
2023/08/18 04:58:16;;;;;;;2.43;2.23;;;26.30;56.10;;;;;;4993814;28;20540;-78
2023/08/18 05:00:44;;;;;;;6.33;2.33;;;26.30;56.40;;;;;;4992924;28;20511;-79
2023/08/18 05:03:12;;;;;;;3.83;2.00;;;26.30;56.60;;;;;;4993570;28;20524;-78
2023/08/18 05:05:59;;;;;;;2.30;2.10;;;26.30;56.30;;;;;;4993463;28;20455;-78
2023/08/18 05:08:27;;;;;;;2.73;2.50;;;26.30;56.60;;;;;;4986489;28;20476;-78
2023/08/18 05:10:56;;;;;;;3.07;1.97;;;26.30;56.60;;;;;;4992682;28;20496;-78
2023/08/18 05:13:24;;;;;;;3.13;1.93;;;26.30;56.60;;;;;;4992830;28;20520;-78
2023/08/18 05:15:53;;;;;;;2.43;2.23;;;26.30;56.40;;;;;;4992873;28;20467;-78
2023/08/18 05:18:21;;;;;;;2.83;2.13;;;26.40;56.60;;;;;;4995118;28;20423;-78
2023/08/18 05:20:49;;;;;;;5.90;1.80;;;26.40;56.50;;;;;;4993122;28;20507;-77
2023/08/18 05:23:19;;;;;;;3.23;2.10;;;26.40;56.50;;;;;;4992728;28;20449;-78
2023/08/18 05:25:48;;;;;;;2.20;2.00;;;26.30;56.40;;;;;;4993321;28;20455;-78
2023/08/18 05:28:16;;;;;;;3.67;3.20;;;26.40;56.70;;;;;;4993302;28;20484;-78
2023/08/18 05:30:47;;;;;;;4.63;3.90;;;26.50;56.20;;;;;;4992855;28;20475;-78
2023/08/18 05:33:17;;;;;;;5.80;3.53;;;26.50;56.60;;;;;;4992720;28;20477;-79
2023/08/18 05:35:47;;;;;;;3.07;2.73;;;26.40;56.00;;;;;;4988258;28;20439;-78
2023/08/18 05:38:16;;;;;;;2.73;2.53;;;26.40;56.60;;;;;;4993366;28;20423;-78
2023/08/18 05:40:48;;;;;;;2.60;2.50;;;26.50;56.10;;;;;;4989482;28;20455;-78
2023/08/18 05:43:22;;;;;;;4.07;2.67;;;26.50;56.40;;;;;;4992216;28;20846;-78
2023/08/18 05:45:50;;;;;;;2.70;2.50;;;26.50;56.30;;;;;;4993012;28;20449;-78
2023/08/18 05:48:18;;;;;;;4.80;2.80;;;26.50;56.30;;;;;;4993097;28;20543;-78
2023/08/18 05:50:59;;;;;;;2.43;2.23;;;26.50;56.70;;;;;;4989711;28;20530;-78
2023/08/18 05:53:28;;;;;;;3.37;2.50;;;26.60;56.40;;;;;;4989800;28;20459;-78
2023/08/18 05:56:03;;;;;;;3.03;2.03;;;26.50;55.80;;;;;;4992692;28;20431;-78
2023/08/18 05:58:32;;;;;;;1.93;1.83;;;26.60;56.50;;;;;;5009206;28;20477;-77
2023/08/18 06:01:00;;;;;;;3.87;2.20;;;26.60;56.30;;;;;;4980079;28;20439;-78
2023/08/18 06:03:30;;;;;;;2.10;1.90;;;26.60;56.30;;;;;;4998995;28;20411;-78
2023/08/18 06:06:00;;;;;;;3.40;2.17;;;26.60;56.30;;;;;;4996301;28;20447;-78
2023/08/18 06:08:33;;;;;;;2.87;2.60;;;26.70;56.40;;;;;;4996191;28;20490;-78
2023/08/18 06:11:02;;;;;;;2.50;1.90;;;26.70;56.10;;;;;;4992413;28;20444;-78
2023/08/18 06:13:30;;;;;;;2.20;2.00;;;26.70;56.20;;;;;;4992505;28;20482;-77
2023/08/18 06:15:58;;;;;;;3.73;1.90;;;26.80;56.20;;;;;;4992809;28;20412;-78
2023/08/18 06:18:26;;;;;;;2.87;2.10;;;26.80;56.00;;;;;;4992676;28;20434;-78
2023/08/18 06:20:54;;;;;;;2.77;1.83;;;26.80;56.00;;;;;;5011287;28;20465;-79
2023/08/18 06:23:22;;;;;;;3.43;2.07;;;26.80;56.10;;;;;;5011827;28;20423;-77
2023/08/18 06:25:50;;;;;;;2.50;1.83;;;26.80;56.20;;;;;;5012121;28;20531;-78
2023/08/18 06:28:19;;;;;;;2.27;2.00;;;26.90;55.90;;;;;;5012188;28;20434;-78
2023/08/18 06:30:47;;;;;;;1.93;1.80;;;26.90;55.60;;;;;;4992491;28;20431;-78
2023/08/18 06:33:15;;;;;;;4.20;2.03;;;26.80;56.00;;;;;;4992389;28;20567;-77
2023/08/18 06:35:43;;;;;;;2.10;2.00;;;26.90;56.10;;;;;;4993702;28;20427;-78
2023/08/18 06:38:11;;;;;;;3.50;2.07;;;26.90;55.80;;;;;;4995960;28;20512;-78
2023/08/18 06:40:39;;;;;;;3.23;2.07;;;26.90;56.30;;;;;;4995655;28;20572;-78
2023/08/18 06:43:07;;;;;;;3.27;1.90;;;26.90;56.00;;;;;;4996146;28;20476;-78
2023/08/18 06:45:36;;;;;;;2.17;1.97;;;26.90;56.20;;;;;;4992510;28;20424;-77
2023/08/18 06:48:05;;;;;;;2.20;2.00;;;26.90;55.90;;;;;;4987442;28;20923;-78
2023/08/18 06:50:33;;;;;;;4.87;2.10;;;27.00;55.90;;;;;;4995570;28;20449;-78
2023/08/18 06:53:01;;;;;;;3.50;2.00;;;27.00;56.10;;;;;;4991053;28;20463;-78
2023/08/18 06:55:29;;;;;;;2.10;2.00;;;27.00;55.60;;;;;;5002862;28;20443;-77
2023/08/18 06:58:16;;;;;;;3.80;3.07;;;27.00;56.00;;;;;;4996828;28;20867;-78
2023/08/18 07:00:46;;;;;;;4.10;2.47;;;27.00;56.40;;;;;;4998856;28;20472;-77
2023/08/18 07:03:14;;;;;;;2.50;2.13;;;26.90;56.10;;;;;;4995054;28;20492;-76
2023/08/18 07:05:42;;;;;;;4.03;2.47;;;26.90;56.50;;;;;;4995664;28;20516;-78
2023/08/18 07:08:10;;;;;;;3.10;2.50;;;26.80;56.90;;;;;;4995787;28;20503;-78
2023/08/18 07:10:38;;;;;;;2.10;1.90;;;26.90;56.30;;;;;;4995325;28;20468;-79
2023/08/18 07:13:06;;;;;;;2.57;2.37;;;26.80;56.90;;;;;;4995321;28;20414;-78
2023/08/18 07:15:34;;;;;;;4.00;2.00;;;26.90;56.90;;;;;;4994476;28;20504;-78
2023/08/18 07:18:04;;;;;;;1.83;1.73;;;27.00;56.50;;;;;;4994505;28;20419;-77
2023/08/18 07:20:32;;;;;;;2.17;1.97;;;26.90;56.10;;;;;;4994702;28;20473;-77
2023/08/18 07:23:01;;;;;;;2.23;2.00;;;27.00;56.00;;;;;;4997566;28;20940;-76
2023/08/18 07:25:29;;;;;;;2.97;2.20;;;27.00;56.60;;;;;;5007554;28;20860;-77
2023/08/18 07:27:57;;;;;;;5.07;2.60;;;27.10;56.20;;;;;;4994916;28;20510;-78
2023/08/18 07:30:25;;;;;;;3.10;2.80;;;27.10;56.10;;;;;;4994838;28;20493;-78
2023/08/18 07:32:54;;;;;;;7.80;6.43;;;27.20;56.00;;;;;;4994991;28;20528;-78
2023/08/18 07:35:24;;;;;;;4.30;3.93;;;27.20;56.20;;;;;;4994080;28;20469;-78
2023/08/18 07:37:52;;;;;;;3.93;3.43;;;27.20;56.20;;;;;;4994743;28;20482;-79
2023/08/18 07:40:23;;;;;;;4.13;2.97;;;27.30;56.10;;;;;;4994614;28;20448;-78
2023/08/18 07:42:51;;;;;;;5.90;3.17;;;27.40;55.60;;;;;;4994526;28;20464;-78
2023/08/18 07:45:20;;;;;;;4.03;2.70;;;27.40;55.70;;;;;;4994762;28;20488;-77
2023/08/18 07:47:48;;;;;;;6.50;2.70;;;27.40;55.90;;;;;;4995793;28;20463;-76
2023/08/18 07:50:17;;;;;;;4.23;2.80;;;27.40;55.90;;;;;;5014473;28;20472;-76
2023/08/18 07:52:46;;;;;;;2.97;2.70;;;27.50;55.90;;;;;;4997827;28;20512;-78
2023/08/18 07:55:15;;;;;;;4.97;2.80;;;27.50;55.00;;;;;;5002664;28;20503;-78
2023/08/18 07:57:43;;;;;;;7.77;4.53;;;27.50;56.30;;;;;;4995241;28;20462;-78
2023/08/18 08:00:16;;;;;;;8.13;3.30;;;27.50;56.10;;;;;;4994577;28;20513;-78
2023/08/18 08:02:44;;;;;;;6.50;3.10;;;27.50;55.70;;;;;;4994450;28;20420;-77
2023/08/18 08:05:13;;;;;;;3.80;3.40;;;27.50;56.00;;;;;;4994412;28;20431;-78
2023/08/18 08:07:41;;;;;;;3.10;2.70;;;27.60;56.40;;;;;;4985413;28;20520;-78
2023/08/18 08:10:12;;;;;;;3.67;3.20;;;27.70;56.10;;;;;;4998149;28;20530;-78
2023/08/18 08:12:40;;;;;;;4.93;2.90;;;27.80;55.80;;;;;;4998925;28;20863;-78
2023/08/18 08:15:10;;;;;;;6.90;3.20;;;27.90;55.40;;;;;;4994271;28;20487;-78
2023/08/18 08:17:37;;;;;;;3.90;2.90;;;28.00;55.10;;;;;;4994069;28;20441;-78
2023/08/18 08:20:10;;;;;;;5.37;2.80;;;27.90;55.80;;;;;;4977338;28;20457;-77
2023/08/18 08:22:38;;;;;;;3.17;2.87;;;28.10;55.60;;;;;;4993679;28;20484;-77
2023/08/18 08:25:12;;;;;;;4.53;3.20;;;28.10;56.40;;;;;;4988224;28;20452;-77
2023/08/18 08:27:40;;;;;;;3.80;2.80;;;28.00;56.90;;;;;;5013460;28;20571;-76
2023/08/18 08:30:12;;;;;;;5.30;3.20;;;28.20;55.80;;;;;;4974243;28;20458;-77
2023/08/18 08:32:59;;;;;;;6.93;3.57;;;28.40;55.60;;;;;;4979427;28;20434;-77
2023/08/18 08:35:27;;;;;;;3.73;3.30;;;28.50;54.80;;;;;;5007130;28;20543;-77
2023/08/18 08:37:56;;;;;;;5.93;3.23;;;28.60;54.70;;;;;;4993915;28;20773;-77
2023/08/18 08:40:27;;;;;;;5.30;3.80;;;28.50;55.50;;;;;;4993550;28;20532;-76
2023/08/18 08:42:56;;;;;;;5.07;3.37;;;28.50;55.30;;;;;;4987066;28;20461;-77
2023/08/18 08:45:28;;;;;;;17.00;7.77;;;28.40;55.60;;;;;;4993015;28;20428;-77
2023/08/18 08:47:57;;;;;;;16.83;6.60;;;28.40;55.10;;;;;;4993656;28;20428;-77
2023/08/18 08:50:28;;;;;;;17.40;5.40;;;28.40;55.80;;;;;;4993427;28;20484;-77
2023/08/18 08:53:01;;;;;;;9.70;4.40;;;28.40;55.90;;;;;;5011662;28;20460;-77
2023/08/18 08:55:32;;;;;;;7.17;4.00;;;28.60;55.30;;;;;;5012964;28;20506;-77
2023/08/18 08:58:01;;;;;;;5.73;3.93;;;28.60;56.00;;;;;;4993708;28;20449;-77
2023/08/18 09:00:30;;;;;;;6.43;4.20;;;28.70;55.40;;;;;;4993474;28;20477;-77
2023/08/18 09:03:00;;;;;;;6.60;3.80;;;28.80;55.10;;;;;;4993165;28;20479;-76
2023/08/18 09:05:31;;;;;;;7.37;4.13;;;28.70;55.80;;;;;;4993358;28;20460;-77
2023/08/18 09:07:59;;;;;;;15.13;8.03;;;28.80;55.60;;;;;;4997889;28;20445;-77
2023/08/18 09:10:33;;;;;;;10.00;5.17;;;28.90;55.80;;;;;;4993218;28;20465;-77
2023/08/18 09:13:01;;;;;;;11.90;4.80;;;29.10;55.40;;;;;;4993152;28;20884;-77
2023/08/18 09:15:29;;;;;;;6.83;3.97;;;29.10;55.30;;;;;;4992606;28;20481;-77
2023/08/18 09:17:58;;;;;;;4.27;3.70;;;29.20;55.30;;;;;;4998964;28;20526;-77
2023/08/18 09:20:26;;;;;;;7.57;3.90;;;29.40;56.10;;;;;;4992461;28;20868;-78
2023/08/18 09:22:57;;;;;;;4.87;3.50;;;29.50;55.70;;;;;;4992823;28;20461;-77
2023/08/18 09:25:25;;;;;;;6.37;5.00;;;29.70;55.00;;;;;;4992573;28;20458;-77
2023/08/18 09:27:57;;;;;;;8.33;3.93;;;29.80;54.20;;;;;;4999631;28;20446;-76
2023/08/18 09:30:25;;;;;;;8.77;3.50;;;29.90;54.10;;;;;;4992123;28;20564;-77
2023/08/18 09:32:54;;;;;;;10.43;3.77;;;29.90;53.60;;;;;;4994727;28;20476;-76
2023/08/18 09:35:22;;;;;;;5.67;3.70;;;30.00;53.80;;;;;;4992166;28;20560;-76
2023/08/18 09:37:56;;;;;;;5.37;3.63;;;30.00;54.20;;;;;;4992899;28;20453;-75
2023/08/18 09:40:24;;;;;;;5.13;2.93;;;30.20;54.20;;;;;;4992432;28;20520;-77
2023/08/18 09:42:53;;;;;;;6.00;3.50;;;30.20;53.70;;;;;;5000818;28;20496;-76
2023/08/18 09:45:23;;;;;;;3.47;2.90;;;30.30;53.50;;;;;;4993102;28;20957;-77
2023/08/18 09:47:54;;;;;;;10.27;3.73;;;30.40;53.50;;;;;;5001882;28;20441;-77
2023/08/18 09:50:23;;;;;;;4.30;3.57;;;30.50;53.40;;;;;;5007354;28;20477;-77
2023/08/18 09:52:53;;;;;;;10.47;5.10;;;30.50;53.00;;;;;;4992941;28;20568;-76
2023/08/18 09:55:26;;;;;;;5.93;3.97;;;30.60;53.20;;;;;;4992393;28;21053;-75
2023/08/18 09:57:57;;;;;;;8.03;3.30;;;30.60;52.70;;;;;;5000080;28;20431;-77
2023/08/18 10:00:28;;;;;;;5.17;3.63;;;30.70;53.10;;;;;;4994883;28;21062;-76
2023/08/18 10:02:59;;;;;;;8.60;3.33;;;30.90;53.20;;;;;;4986967;28;20453;-76
2023/08/18 10:05:28;;;;;;;3.50;3.20;;;30.90;52.40;;;;;;4989560;28;20445;-76
2023/08/18 10:07:58;;;;;;;20.00;3.40;;;31.00;52.40;;;;;;4991841;28;20480;-74
2023/08/18 10:10:27;;;;;;;12.50;4.30;;;31.20;52.10;;;;;;4998647;28;20475;-76
2023/08/18 10:12:55;;;;;;;11.97;3.60;;;31.40;52.20;;;;;;5010461;28;20460;-76
2023/08/18 10:15:24;;;;;;;6.17;3.17;;;31.60;51.70;;;;;;5010049;28;20502;-76
2023/08/18 10:17:57;;;;;;;5.13;3.00;;;31.70;51.40;;;;;;4998449;28;20476;-76
2023/08/18 10:20:27;;;;;;;3.43;3.13;;;31.80;51.00;;;;;;4994299;28;20468;-76
2023/08/18 10:22:57;;;;;;;6.50;3.20;;;32.00;50.70;;;;;;4980640;28;20453;-76
2023/08/18 10:25:28;;;;;;;4.53;3.40;;;32.10;50.40;;;;;;4991259;28;20454;-75
2023/08/18 10:27:56;;;;;;;7.53;3.60;;;32.30;50.20;;;;;;4995263;28;20483;-76
2023/08/18 10:30:28;;;;;;;4.87;3.00;;;32.40;49.80;;;;;;5006518;28;20557;-76
2023/08/18 10:33:06;;;;;;;3.40;3.20;;;32.50;49.70;;;;;;5001441;28;20443;-76
2023/08/18 10:35:41;;;;;;;3.27;3.03;;;32.70;49.50;;;;;;5009456;28;21042;-76
2023/08/18 10:38:11;;;;;;;4.13;3.07;;;32.80;49.30;;;;;;4995531;28;20460;-76
2023/08/18 10:40:39;;;;;;;3.63;3.13;;;33.00;49.00;;;;;;5002776;28;20464;-76
2023/08/18 10:43:10;;;;;;;4.90;3.43;;;33.10;48.90;;;;;;5004785;28;20507;-77
2023/08/18 10:45:39;;;;;;;3.63;3.33;;;33.20;48.60;;;;;;5003756;28;20449;-76
2023/08/18 10:48:10;;;;;;;4.57;3.50;;;33.30;48.40;;;;;;4994876;28;20464;-78
2023/08/18 10:50:54;;;;;;;4.10;3.63;;;33.40;48.80;;;;;;5059355;22;20484;-77
2023/08/18 10:53:46;;;;;;;3.60;3.33;;;33.50;48.10;;;;;;4989464;28;20426;-76
2023/08/18 10:56:14;;;;;;;4.03;3.23;;;33.60;47.70;;;;;;4987211;28;20497;-75
2023/08/18 10:58:42;;;;;;;4.77;3.50;;;33.80;47.50;;;;;;4994996;28;20449;-76
2023/08/18 11:01:11;;;;;;;15.73;3.10;;;33.80;47.40;;;;;;4995382;28;20465;-78
2023/08/18 11:03:40;;;;;;;4.10;3.03;;;33.80;47.00;;;;;;4995372;28;20433;-76
2023/08/18 11:06:08;;;;;;;3.50;3.23;;;33.80;46.80;;;;;;4994416;28;20515;-76
2023/08/18 11:08:37;;;;;;;6.47;3.50;;;33.70;46.80;;;;;;4981418;28;20449;-76
2023/08/18 11:11:05;;;;;;;4.10;3.50;;;33.50;46.90;;;;;;4991034;28;20522;-76
2023/08/18 11:13:34;;;;;;;4.90;3.47;;;33.30;47.30;;;;;;4994369;28;20445;-78
2023/08/18 11:16:02;;;;;;;5.13;4.20;;;33.10;47.60;;;;;;4994743;28;20493;-75
2023/08/18 11:18:31;;;;;;;8.03;4.40;;;33.10;47.80;;;;;;4994745;28;20444;-77
2023/08/18 11:21:00;;;;;;;5.37;4.57;;;33.10;47.80;;;;;;4994451;28;20527;-77
2023/08/18 11:23:28;;;;;;;3.97;3.77;;;33.00;47.70;;;;;;4994359;28;20484;-77
2023/08/18 11:25:57;;;;;;;8.13;4.00;;;33.10;48.30;;;;;;4994895;28;20445;-79
2023/08/18 11:28:25;;;;;;;5.97;4.07;;;33.20;47.90;;;;;;4992974;28;20445;-76
2023/08/18 11:30:54;;;;;;;4.20;3.80;;;33.20;47.90;;;;;;4994019;28;20474;-76
2023/08/18 11:33:25;;;;;;;8.20;4.07;;;33.20;47.90;;;;;;4994435;28;20441;-76
2023/08/18 11:35:54;;;;;;;5.57;4.03;;;33.20;48.70;;;;;;4994178;28;20933;-77
2023/08/18 11:38:23;;;;;;;5.20;4.03;;;33.20;48.10;;;;;;4993708;28;20436;-77
2023/08/18 11:40:51;;;;;;;6.50;3.83;;;33.10;48.20;;;;;;4993340;28;20512;-76
2023/08/18 11:43:21;;;;;;;4.47;4.07;;;33.10;48.30;;;;;;4988377;28;20450;-75
2023/08/18 11:45:49;;;;;;;6.10;4.07;;;33.40;48.10;;;;;;4993934;28;20464;-76
2023/08/18 11:48:20;;;;;;;4.30;4.00;;;33.40;47.90;;;;;;4994417;28;20523;-78
2023/08/18 11:50:48;;;;;;;11.60;5.10;;;33.40;47.90;;;;;;4994402;28;20472;-82
2023/08/18 11:53:25;;;;;;;11.50;4.03;;;33.40;48.40;;;;;;4994044;28;20441;-77
2023/08/18 11:55:53;;;;;;;11.80;3.80;;;34.00;47.80;;;;;;4994726;28;20499;-78
2023/08/18 11:58:23;;;;;;;6.87;3.60;;;34.30;46.80;;;;;;4993929;28;20452;-75
2023/08/18 12:00:51;;;;;;;3.30;3.10;;;35.90;45.40;;;;;;4994364;28;20519;-75
2023/08/18 12:03:22;;;;;;;3.67;3.37;;;37.60;42.40;;;;;;5009819;28;20495;-75
2023/08/18 12:05:51;;;;;;;10.13;3.23;;;38.90;39.60;;;;;;5000316;28;20942;-76
2023/08/18 12:08:19;;;;;;;8.00;3.30;;;39.90;38.20;;;;;;4994102;28;20445;-76
2023/08/18 12:10:52;;;;;;;5.03;2.80;;;40.80;37.40;;;;;;4993910;28;20542;-75
2023/08/18 12:13:20;;;;;;;3.90;3.60;;;41.30;35.60;;;;;;4994784;28;20520;-76
2023/08/18 12:15:49;;;;;;;3.97;3.40;;;42.00;34.90;;;;;;4992819;28;20515;-75
2023/08/18 12:18:18;;;;;;;4.47;4.20;;;42.50;34.30;;;;;;4992945;28;20460;-75
2023/08/18 12:20:46;;;;;;;3.73;3.53;;;42.90;33.30;;;;;;4993350;28;20457;-75
2023/08/18 12:23:14;;;;;;;3.90;3.60;;;43.20;32.80;;;;;;4992817;28;20499;-75
2023/08/18 12:25:42;;;;;;;5.23;4.30;;;42.30;34.00;;;;;;5008224;28;20471;-75
2023/08/18 12:28:11;;;;;;;4.10;3.90;;;42.10;34.60;;;;;;4997434;28;20469;-75
2023/08/18 12:30:39;;;;;;;4.37;3.97;;;41.80;35.20;;;;;;4991433;28;20563;-75
2023/08/18 12:33:07;;;;;;;4.90;4.63;;;41.00;34.70;;;;;;4997793;28;20448;-75
2023/08/18 12:35:35;;;;;;;4.20;4.03;;;39.80;36.90;;;;;;4999309;28;20511;-75
2023/08/18 12:38:02;;;;;;;6.23;5.47;;;38.90;37.90;;;;;;4998435;28;20457;-74
2023/08/18 12:40:30;;;;;;;5.33;4.90;;;38.00;39.40;;;;;;4990336;28;21306;-75
2023/08/18 12:42:58;;;;;;;7.53;5.83;;;37.10;41.00;;;;;;4990821;28;20472;-75
2023/08/18 12:45:27;;;;;;;6.13;5.37;;;36.40;42.30;;;;;;4991183;28;20501;-75
2023/08/18 12:47:55;;;;;;;8.97;5.30;;;35.90;43.40;;;;;;4988463;28;20474;-74
2023/08/18 12:50:23;;;;;;;5.57;5.17;;;35.30;44.20;;;;;;4995174;28;20491;-75
2023/08/18 12:52:51;;;;;;;5.77;5.27;;;34.90;45.20;;;;;;4988012;28;20458;-75